createdAt,value
2022-07-31T00:22:09.874Z,99.90
2022-07-31T00:24:36.811Z,99.90
2022-07-31T00:34:26.672Z,99.90
2022-07-31T00:36:53.482Z,99.90
2022-07-31T00:39:20.356Z,99.90
2022-07-31T00:41:47.767Z,99.90
2022-07-31T01:13:56.644Z,99.90
2022-07-31T01:16:27.581Z,99.90
2022-07-31T01:18:56.957Z,99.90
2022-07-31T01:21:31.997Z,99.90
2022-07-31T01:32:16.364Z,99.90
2022-07-31T01:34:57.723Z,99.90
2022-07-31T01:40:05.265Z,99.90
2022-07-31T01:42:36.728Z,99.90
2022-07-31T01:45:06.319Z,99.90
2022-07-31T01:47:34.576Z,99.90
2022-07-31T01:50:02.780Z,99.90
2022-07-31T01:52:31.631Z,99.90
2022-07-31T01:54:59.772Z,99.90
2022-07-31T01:57:29.456Z,99.90
2022-07-31T01:59:59.884Z,99.90
2022-07-31T02:02:29.091Z,99.90
2022-07-31T02:04:57.422Z,99.90
2022-07-31T02:15:02.929Z,99.90
2022-07-31T02:32:42.368Z,99.90
2022-07-31T02:54:53.603Z,99.90
2022-07-31T03:02:14.815Z,99.90
2022-07-31T03:04:42.456Z,99.90
2022-07-31T03:07:09.687Z,99.90
2022-07-31T03:09:36.774Z,99.90
2022-07-31T03:12:03.963Z,99.90
2022-07-31T03:14:34.305Z,99.90
2022-07-31T03:17:02.907Z,99.90
2022-07-31T03:19:30.978Z,99.90
2022-07-31T03:21:58.153Z,99.90
2022-07-31T03:24:26.927Z,99.90
2022-07-31T03:26:53.990Z,99.90
2022-07-31T03:29:39.014Z,99.90
2022-07-31T03:32:07.673Z,99.90
2022-07-31T03:34:34.608Z,99.90
2022-07-31T03:37:01.546Z,99.90
2022-07-31T03:39:28.436Z,99.90
2022-07-31T03:41:56.892Z,99.90
2022-07-31T03:44:25.821Z,99.90
2022-07-31T03:49:20.914Z,99.90
2022-07-31T03:51:47.792Z,99.90
2022-07-31T03:54:14.856Z,99.90
2022-07-31T03:56:46.478Z,99.90
2022-07-31T03:59:15.898Z,99.90
2022-07-31T04:02:07.622Z,99.90
2022-07-31T04:04:30.608Z,99.90
2022-07-31T04:06:57.564Z,99.90
2022-07-31T04:09:24.335Z,99.90
2022-07-31T04:11:51.145Z,99.90
2022-07-31T04:14:18.002Z,99.90
2022-07-31T04:16:45.135Z,99.90
2022-07-31T04:19:11.988Z,99.90
2022-07-31T04:21:38.765Z,99.90
2022-07-31T04:24:06.127Z,99.90
2022-07-31T04:29:00.178Z,99.90
2022-07-31T04:31:26.966Z,99.90
2022-07-31T04:33:56.865Z,99.90
2022-07-31T04:36:30.176Z,99.90
2022-07-31T04:39:01.140Z,99.90
2022-07-31T04:41:28.620Z,99.90
2022-07-31T04:43:57.742Z,99.90
2022-07-31T04:46:24.817Z,99.90
2022-07-31T04:48:51.761Z,99.90
2022-07-31T04:51:23.370Z,99.90
2022-07-31T04:53:50.833Z,99.90
2022-07-31T04:56:34.147Z,99.90
2022-07-31T04:59:05.963Z,99.90
2022-07-31T05:01:34.012Z,99.90
2022-07-31T05:04:01.326Z,99.90
2022-07-31T05:06:49.109Z,99.90
2022-07-31T05:09:23.755Z,99.90
2022-07-31T05:11:52.926Z,99.90
2022-07-31T05:14:21.863Z,99.90
2022-07-31T05:16:49.610Z,99.90
2022-07-31T05:19:16.955Z,99.90
2022-07-31T05:21:53.274Z,99.90
2022-07-31T05:24:32.429Z,99.90
2022-07-31T05:27:04.348Z,99.90
2022-07-31T05:29:32.978Z,99.90
2022-07-31T05:32:01.099Z,99.90
2022-07-31T05:37:01.285Z,99.90
2022-07-31T05:39:28.786Z,99.90
2022-07-31T05:41:55.592Z,99.90
2022-07-31T05:44:22.421Z,99.90
2022-07-31T05:49:15.951Z,99.90
2022-07-31T05:51:43.910Z,99.90
2022-07-31T05:54:10.800Z,99.90
2022-07-31T05:56:37.911Z,99.90
2022-07-31T05:59:04.718Z,99.90
2022-07-31T06:01:31.534Z,99.90
2022-07-31T06:03:58.367Z,99.90
2022-07-31T06:06:25.194Z,99.90
2022-07-31T06:08:53.908Z,99.90
2022-07-31T06:11:21.049Z,99.90
2022-07-31T06:13:47.835Z,99.90
2022-07-31T06:16:15.545Z,99.90
2022-07-31T06:18:42.880Z,99.90
2022-07-31T06:23:37.103Z,99.90
2022-07-31T06:26:04.895Z,99.90
2022-07-31T06:31:21.126Z,99.90
2022-07-31T06:33:49.644Z,99.90
2022-07-31T06:46:48.976Z,99.90
2022-07-31T06:49:17.099Z,99.90
2022-07-31T06:51:44.558Z,99.90
2022-07-31T07:01:35.227Z,99.90
2022-07-31T10:04:57.364Z,99.90
2022-07-31T10:10:01.786Z,99.90
2022-07-31T10:12:31.030Z,99.90
2022-07-31T10:15:03.914Z,99.90
2022-07-31T10:17:36.071Z,99.90
2022-07-31T10:20:05.984Z,99.90
2022-07-31T10:32:35.227Z,99.90
2022-07-31T12:18:02.930Z,85.70
2022-07-31T12:20:35.873Z,85.10
2022-07-31T12:23:06.123Z,83.80
2022-07-31T12:25:45.657Z,83.80
2022-07-31T12:28:14.860Z,84.30
2022-07-31T12:30:42.877Z,81.80
2022-07-31T12:33:11.540Z,82.20
2022-07-31T12:35:56.143Z,82.80
2022-07-31T12:38:47.769Z,84.00
2022-07-31T12:41:14.826Z,85.10
2022-07-31T12:43:51.642Z,84.40
2022-07-31T12:46:20.294Z,84.20
2022-07-31T12:48:47.111Z,84.90
2022-07-31T12:51:14.194Z,85.00
2022-07-31T12:53:41.075Z,84.70
2022-07-31T12:56:12.408Z,85.30
2022-07-31T12:58:39.205Z,85.50
2022-07-31T13:01:06.061Z,84.70
2022-07-31T13:03:45.910Z,84.40
2022-07-31T13:06:14.425Z,85.30
2022-07-31T13:08:43.916Z,85.00
2022-07-31T13:11:11.413Z,84.60
2022-07-31T13:13:38.278Z,84.90
2022-07-31T13:16:05.623Z,85.40
2022-07-31T13:18:33.950Z,85.40
2022-07-31T13:21:00.897Z,86.60
2022-07-31T13:23:28.057Z,87.50
2022-07-31T13:25:55.080Z,88.20
2022-07-31T13:28:21.956Z,88.70
2022-07-31T13:30:54.606Z,88.80
2022-07-31T13:33:22.046Z,88.60
2022-07-31T13:35:49.021Z,90.00
2022-07-31T13:38:15.979Z,90.00
2022-07-31T13:41:01.667Z,90.20
2022-07-31T13:43:28.541Z,90.70
2022-07-31T13:45:55.374Z,91.00
2022-07-31T13:48:22.308Z,91.00
2022-07-31T13:50:49.471Z,90.70
2022-07-31T13:53:16.429Z,91.30
2022-07-31T13:55:46.063Z,90.90
2022-07-31T13:58:16.630Z,91.40
2022-07-31T14:00:43.494Z,92.20
2022-07-31T14:03:10.386Z,92.50
2022-07-31T14:05:40.264Z,92.80
2022-07-31T14:08:32.888Z,92.80
2022-07-31T14:10:55.991Z,92.90
2022-07-31T14:13:23.228Z,92.90
2022-07-31T14:15:50.089Z,92.90
2022-07-31T14:18:16.918Z,93.60
2022-07-31T14:20:43.707Z,93.70
2022-07-31T14:23:10.620Z,94.20
2022-07-31T14:25:38.807Z,95.10
2022-07-31T14:28:06.980Z,95.50
2022-07-31T14:35:29.092Z,97.20
2022-07-31T15:00:15.132Z,99.90
2022-07-31T15:08:00.677Z,99.90
2022-07-31T15:15:25.876Z,99.90
2022-07-31T15:17:55.774Z,99.90
2022-07-31T15:20:28.918Z,99.90
2022-07-31T15:22:59.796Z,99.90
2022-07-31T15:25:26.658Z,99.90
2022-07-31T15:27:53.452Z,99.90
2022-07-31T15:50:08.727Z,99.90
2022-07-31T15:52:35.770Z,99.90
2022-07-31T15:55:03.215Z,99.90
2022-07-31T15:57:30.116Z,99.90
2022-07-31T16:02:25.707Z,99.90
2022-07-31T16:12:47.310Z,99.90
2022-07-31T16:15:15.998Z,99.90
2022-07-31T16:45:27.072Z,99.90
2022-07-31T16:50:21.266Z,99.90
2022-07-31T16:58:11.276Z,99.90
2022-07-31T17:05:53.887Z,99.90
2022-07-31T17:08:20.789Z,99.90
2022-07-31T17:23:14.064Z,99.90
2022-07-31T17:25:42.640Z,99.90
2022-07-31T17:28:14.731Z,99.90
2022-07-31T17:30:42.316Z,99.90
2022-07-31T17:33:09.340Z,99.90
2022-07-31T17:35:36.649Z,99.90
2022-07-31T17:38:03.558Z,99.90
2022-07-31T17:40:43.072Z,99.90
2022-07-31T17:43:10.550Z,99.90
2022-07-31T17:48:27.605Z,99.90
2022-07-31T17:50:54.454Z,99.90
2022-07-31T17:53:31.120Z,99.90
2022-07-31T17:56:13.122Z,99.90
2022-07-31T17:58:41.870Z,99.90
2022-07-31T18:03:36.126Z,99.90
2022-07-31T18:06:04.403Z,99.90
2022-07-31T18:08:31.613Z,99.90
2022-07-31T18:18:22.280Z,99.90
2022-07-31T18:20:49.160Z,99.90
2022-07-31T18:23:16.028Z,99.90
2022-07-31T19:05:31.845Z,99.90
2022-07-31T19:15:25.626Z,99.90
2022-07-31T19:17:52.520Z,99.90
2022-07-31T19:23:14.500Z,99.90
2022-07-31T19:25:59.546Z,99.90
2022-07-31T19:28:31.172Z,99.90
2022-07-31T19:30:58.954Z,99.90
2022-07-31T19:33:25.919Z,99.90
2022-07-31T19:35:58.400Z,99.90
2022-07-31T19:38:28.188Z,99.90
2022-07-31T19:40:55.140Z,99.90
2022-07-31T19:45:58.777Z,99.90
2022-07-31T19:48:36.609Z,99.90
2022-07-31T19:51:04.505Z,99.90
2022-07-31T19:53:31.780Z,99.90
2022-07-31T19:56:00.435Z,99.90
2022-07-31T19:58:27.246Z,99.90
2022-07-31T20:00:54.071Z,99.90
2022-07-31T20:33:56.566Z,99.90
2022-07-31T20:36:25.810Z,99.90
2022-07-31T20:38:53.026Z,99.90
2022-07-31T20:41:20.096Z,99.90
2022-07-31T20:43:46.922Z,99.90
2022-07-31T20:46:15.851Z,99.90
2022-07-31T20:48:44.524Z,99.90
2022-07-31T20:51:19.144Z,99.90
2022-07-31T20:53:47.360Z,99.90
2022-07-31T20:56:14.323Z,99.90
2022-07-31T20:58:41.491Z,99.90
2022-07-31T21:01:08.647Z,99.90
2022-07-31T21:03:35.718Z,99.90
2022-07-31T21:06:02.559Z,99.90
2022-07-31T21:08:29.370Z,99.90
2022-07-31T21:10:56.415Z,99.90
2022-07-31T21:13:28.511Z,99.90
2022-07-31T21:15:56.197Z,99.90
2022-07-31T21:18:23.453Z,99.90
2022-07-31T21:20:53.452Z,99.90
2022-07-31T21:23:28.003Z,99.90
2022-07-31T21:25:58.737Z,99.90
2022-07-31T21:28:27.904Z,99.90
2022-07-31T21:30:56.243Z,99.90
2022-07-31T21:33:27.440Z,99.90
2022-07-31T21:35:55.127Z,99.90
2022-07-31T21:38:22.815Z,99.90
2022-07-31T21:40:50.087Z,99.90
2022-07-31T21:43:22.052Z,99.90
2022-07-31T21:45:57.630Z,99.90
2022-07-31T21:48:30.217Z,99.90
2022-07-31T21:50:57.476Z,99.90
2022-07-31T21:53:24.806Z,99.90
2022-07-31T21:55:52.014Z,99.90
2022-07-31T21:58:18.954Z,99.90
2022-07-31T22:00:45.961Z,99.90
2022-07-31T22:03:12.894Z,99.90
2022-07-31T22:05:58.205Z,99.90
2022-07-31T22:08:25.043Z,99.90
2022-07-31T22:10:52.328Z,99.90
2022-07-31T22:13:19.895Z,99.90
2022-07-31T22:15:51.421Z,99.90
2022-07-31T22:18:32.208Z,99.90
2022-07-31T22:21:00.663Z,99.90
2022-07-31T22:23:28.406Z,99.90
2022-07-31T22:25:55.819Z,99.90
2022-07-31T22:28:23.902Z,99.90
2022-07-31T22:30:51.423Z,99.90
2022-07-31T22:33:18.900Z,99.90
2022-07-31T22:35:58.374Z,99.90
2022-07-31T22:38:27.964Z,99.90
2022-07-31T22:40:55.073Z,99.90
2022-07-31T22:44:09.615Z,99.90
2022-07-31T22:46:11.748Z,99.90
2022-07-31T22:48:40.682Z,99.90
2022-07-31T22:51:08.489Z,99.90
2022-07-31T22:53:36.134Z,99.90
2022-07-31T22:56:03.141Z,99.90
2022-07-31T22:58:29.947Z,99.90
2022-07-31T23:00:56.948Z,99.90
2022-07-31T23:03:23.683Z,99.90
2022-07-31T23:06:05.327Z,99.90
2022-07-31T23:08:37.259Z,99.90
2022-07-31T23:11:04.104Z,99.90
2022-07-31T23:13:30.890Z,99.90
2022-07-31T23:15:57.803Z,99.90
2022-07-31T23:18:26.463Z,99.90
2022-07-31T23:20:53.348Z,99.90
2022-07-31T23:23:20.178Z,99.90
2022-07-31T23:25:46.928Z,99.90
2022-07-31T23:28:13.740Z,99.90
2022-07-31T23:30:40.651Z,99.90
2022-07-31T23:33:07.546Z,99.90
2022-07-31T23:35:34.422Z,99.90
2022-07-31T23:38:04.300Z,99.90
2022-07-31T23:40:31.198Z,99.90
2022-07-31T23:42:57.991Z,99.90
2022-07-31T23:45:24.830Z,99.90
2022-07-31T23:47:51.582Z,99.90
2022-07-31T23:50:18.543Z,99.90
2022-07-31T23:52:45.976Z,99.90
2022-07-31T23:55:13.174Z,99.90
2022-07-31T23:57:40.667Z,99.90
